< < Back
Terminal Aerodrome Forecast


Current Version              Previous Versions:   1  2  3  4  5  6  7  8  9  

Terminal Aerodrome Forecast

195
FTUS42 KCHS 280526
TAFSAV
TAF
KSAV 280526Z 2806/2906 22006KT P6SM SCT060
     FM281200 26007KT P6SM SKC
     FM281800 23009G16KT P6SM SCT050
     FM282300 20008KT P6SM SCT250=

Latest METAR

700
SAUS80 KWBC 290200
MTRSAV
METAR KSAV 290153Z 18009KT 10SM FEW075 30/25 A2998 RMK AO2 SLP150
T03000250


USA.gov is the U.S. government's official web portal to all federal, state and local government web resources and services.